Time;durP1;ratioP1;P1;durP2;ratioP2;P2;SDS_P1;SDS_P2;PMS_P1;PMS_P2;Temp;Humidity;BMP_temperature;BMP_pressure;BME280_temperature;BME280_humidity;BME280_pressure;Samples;Min_cycle;Max_cycle;Signal;HPM_P1;HPM_P2
2022/06/11 00:02:03;;;;;;;6.45;2.60;;;18.90;99.90;;;;;;5074183;28;20193;-70
2022/06/11 00:04:38;;;;;;;6.32;2.88;;;18.90;99.90;;;;;;5072650;28;20206;-70
2022/06/11 00:07:11;;;;;;;7.20;2.95;;;18.90;99.90;;;;;;5074035;28;20245;-69
2022/06/11 00:09:38;;;;;;;3.75;2.47;;;18.80;99.90;;;;;;5074404;28;20146;-69
2022/06/11 00:12:05;;;;;;;5.65;2.30;;;18.80;99.90;;;;;;5073693;28;20193;-70
2022/06/11 00:14:32;;;;;;;7.35;2.78;;;18.90;99.90;;;;;;5072142;28;20204;-69
2022/06/11 00:17:00;;;;;;;5.78;2.70;;;18.90;99.90;;;;;;5073912;28;20177;-70
2022/06/11 00:19:26;;;;;;;4.85;2.83;;;18.90;99.90;;;;;;5072260;28;20192;-69
2022/06/11 00:21:53;;;;;;;3.65;2.38;;;18.90;99.90;;;;;;5073577;28;20194;-69
2022/06/11 00:24:21;;;;;;;6.90;2.50;;;18.90;99.90;;;;;;5071955;28;20209;-69
2022/06/11 00:26:48;;;;;;;3.42;2.47;;;18.90;99.90;;;;;;5076076;28;20182;-69
2022/06/11 00:29:16;;;;;;;3.17;2.33;;;18.90;99.90;;;;;;5077106;28;20204;-69
2022/06/11 00:31:42;;;;;;;3.53;2.45;;;18.90;99.90;;;;;;5077100;28;20235;-69
2022/06/11 00:34:08;;;;;;;5.85;3.20;;;18.90;99.90;;;;;;5077112;28;20173;-69
2022/06/11 00:36:34;;;;;;;5.78;2.75;;;18.90;99.90;;;;;;5077696;28;20174;-69
2022/06/11 00:39:01;;;;;;;6.28;3.13;;;18.90;99.90;;;;;;5077123;28;20252;-69
2022/06/11 00:41:28;;;;;;;4.30;2.50;;;18.90;99.90;;;;;;5076944;28;20185;-70
2022/06/11 00:43:54;;;;;;;3.78;2.70;;;18.90;99.90;;;;;;5076665;28;20193;-69
2022/06/11 00:46:35;;;;;;;4.05;2.38;;;18.90;99.90;;;;;;5076995;28;20173;-69
2022/06/11 00:49:03;;;;;;;4.03;2.22;;;18.90;99.90;;;;;;5076850;28;20170;-69
2022/06/11 00:51:31;;;;;;;3.72;2.78;;;18.80;99.90;;;;;;5075504;28;20207;-69
2022/06/11 00:54:03;;;;;;;6.03;2.35;;;18.80;99.90;;;;;;5076795;28;20169;-69
2022/06/11 00:56:37;;;;;;;4.47;2.80;;;18.80;99.90;;;;;;5077010;28;20682;-69
2022/06/11 00:59:06;;;;;;;5.05;2.40;;;18.80;99.90;;;;;;5076429;28;20618;-69
2022/06/11 01:01:33;;;;;;;8.00;3.15;;;18.80;99.90;;;;;;5076623;28;20192;-69
2022/06/11 01:04:01;;;;;;;5.13;2.50;;;18.80;99.90;;;;;;5075276;28;20251;-69
2022/06/11 01:06:36;;;;;;;4.32;2.58;;;18.80;99.90;;;;;;5076560;28;20539;-69
2022/06/11 01:09:17;;;;;;;4.35;2.78;;;18.70;99.90;;;;;;5075219;28;20162;-69
2022/06/11 01:12:08;;;;;;;6.50;2.85;;;18.70;99.90;;;;;;5076431;28;20193;-69
2022/06/11 01:14:46;;;;;;;7.90;2.95;;;18.70;99.90;;;;;;5075006;28;20217;-69
2022/06/11 01:17:14;;;;;;;10.35;3.42;;;18.70;99.90;;;;;;5075183;28;20261;-69
2022/06/11 01:19:46;;;;;;;4.28;2.97;;;18.70;99.90;;;;;;5074989;28;20177;-69
2022/06/11 01:22:49;;;;;;;4.70;2.70;;;18.70;99.90;;;;;;5075158;28;20200;-69
2022/06/11 01:25:52;;;;;;;6.07;2.58;;;18.70;99.90;;;;;;5076279;28;20263;-70
2022/06/11 01:28:46;;;;;;;5.13;2.65;;;18.70;99.90;;;;;;5074689;28;20181;-70
2022/06/11 01:31:29;;;;;;;4.22;2.60;;;18.70;99.90;;;;;;5076583;28;20170;-69
2022/06/11 01:34:36;;;;;;;4.70;2.55;;;18.70;99.90;;;;;;5076348;28;20161;-69
2022/06/11 01:37:13;;;;;;;5.03;2.65;;;18.70;99.90;;;;;;5075898;28;20200;-69
2022/06/11 01:40:05;;;;;;;7.55;2.47;;;18.70;99.90;;;;;;5075928;28;20154;-69
2022/06/11 01:42:39;;;;;;;5.15;2.85;;;18.70;99.90;;;;;;5074053;28;20209;-69
2022/06/11 01:45:15;;;;;;;4.00;2.35;;;18.70;99.90;;;;;;5074600;28;20196;-69
2022/06/11 01:47:43;;;;;;;4.50;2.58;;;18.70;99.90;;;;;;5074634;28;20158;-69
2022/06/11 01:50:11;;;;;;;7.10;2.97;;;18.70;99.90;;;;;;5075759;28;20178;-69
2022/06/11 01:53:30;;;;;;;2.72;2.53;;;18.70;99.90;;;;;;5075697;28;20201;-69
2022/06/11 01:57:03;;;;;;;4.90;3.10;;;18.70;99.90;;;;;;5053936;28;20285;-69
2022/06/11 01:59:57;;;;;;;5.93;2.70;;;18.70;99.90;;;;;;4958454;28;20598;-69
2022/06/11 02:02:28;;;;;;;2.53;2.33;;;18.60;99.90;;;;;;4994491;28;20752;-69
2022/06/11 02:05:25;;;;;;;4.65;3.03;;;18.60;99.90;;;;;;5051042;28;20276;-69
2022/06/11 02:08:28;;;;;;;5.85;2.53;;;18.60;99.90;;;;;;5075675;28;20166;-69
2022/06/11 02:10:57;;;;;;;3.78;2.60;;;18.60;99.90;;;;;;5075663;28;20631;-69
2022/06/11 02:13:34;;;;;;;3.38;2.47;;;18.60;99.90;;;;;;5075157;28;20193;-69
2022/06/11 02:16:23;;;;;;;4.43;2.95;;;18.60;99.90;;;;;;5075484;28;20228;-69
2022/06/11 02:18:54;;;;;;;3.45;2.70;;;18.60;99.90;;;;;;5074269;28;20169;-69
2022/06/11 02:21:25;;;;;;;4.80;2.85;;;18.60;99.90;;;;;;5075754;28;20165;-69
2022/06/11 02:24:03;;;;;;;6.07;2.75;;;18.50;99.90;;;;;;5073979;28;20197;-67
2022/06/11 02:26:38;;;;;;;6.38;2.75;;;18.50;99.90;;;;;;5074134;28;20181;-69
2022/06/11 02:29:05;;;;;;;5.68;2.80;;;18.50;99.90;;;;;;5075116;28;20150;-69
2022/06/11 02:31:40;;;;;;;4.07;2.72;;;18.50;99.90;;;;;;5075186;28;20177;-69
2022/06/11 02:34:08;;;;;;;6.05;3.05;;;18.50;99.90;;;;;;5075562;28;20189;-69
2022/06/11 02:36:49;;;;;;;4.07;2.58;;;18.50;99.90;;;;;;5075213;28;20185;-69
2022/06/11 02:39:15;;;;;;;5.65;2.78;;;18.50;99.90;;;;;;5074767;28;20158;-69
2022/06/11 02:41:42;;;;;;;5.53;2.90;;;18.40;99.90;;;;;;5075097;28;20200;-69
2022/06/11 02:44:08;;;;;;;5.88;3.20;;;18.40;99.90;;;;;;5075395;28;20280;-69
2022/06/11 02:46:43;;;;;;;5.15;2.83;;;18.40;99.90;;;;;;5077211;28;20180;-69
2022/06/11 02:49:14;;;;;;;8.20;3.05;;;18.30;99.90;;;;;;5076110;28;20680;-69
2022/06/11 02:51:40;;;;;;;5.30;3.17;;;18.30;99.90;;;;;;5075512;28;20193;-70
2022/06/11 02:54:06;;;;;;;3.33;2.92;;;18.30;99.90;;;;;;5075862;28;20193;-69
2022/06/11 02:56:32;;;;;;;5.38;2.85;;;18.30;99.90;;;;;;5073728;28;20189;-70
2022/06/11 02:58:58;;;;;;;6.25;3.00;;;18.30;99.90;;;;;;5074904;28;20708;-69
2022/06/11 03:01:26;;;;;;;7.80;3.15;;;18.30;99.90;;;;;;5073320;28;20751;-69
2022/06/11 03:03:53;;;;;;;3.33;2.63;;;18.20;99.90;;;;;;5073392;28;20201;-69
2022/06/11 03:06:21;;;;;;;5.65;3.08;;;18.20;99.90;;;;;;5073481;28;20185;-69
2022/06/11 03:08:47;;;;;;;7.88;3.30;;;18.20;99.90;;;;;;5074804;28;20173;-70
2022/06/11 03:11:13;;;;;;;9.55;3.50;;;18.20;99.90;;;;;;5074348;28;20181;-69
2022/06/11 03:13:39;;;;;;;8.63;2.88;;;18.10;99.90;;;;;;5072654;28;20662;-69
2022/06/11 03:16:05;;;;;;;8.18;3.20;;;18.10;99.90;;;;;;5073014;28;20189;-69
2022/06/11 03:18:31;;;;;;;4.43;3.20;;;18.10;99.90;;;;;;5072856;28;20182;-69
2022/06/11 03:20:57;;;;;;;5.25;3.10;;;18.10;99.90;;;;;;5074197;28;20574;-69
2022/06/11 03:23:23;;;;;;;7.40;3.33;;;18.10;99.90;;;;;;5072642;28;20205;-69
2022/06/11 03:25:49;;;;;;;5.38;3.38;;;18.10;99.90;;;;;;5074237;28;20198;-69
2022/06/11 03:28:19;;;;;;;6.90;3.50;;;18.10;99.90;;;;;;5074067;28;20627;-69
2022/06/11 03:30:45;;;;;;;5.00;3.17;;;18.10;99.90;;;;;;5073912;28;20185;-69
2022/06/11 03:33:12;;;;;;;7.70;3.92;;;18.10;99.90;;;;;;5073923;28;20770;-69
2022/06/11 03:35:38;;;;;;;7.22;4.00;;;18.10;99.90;;;;;;5074166;28;20657;-69
2022/06/11 03:38:07;;;;;;;5.38;3.65;;;18.10;99.90;;;;;;5074044;28;20182;-69
2022/06/11 03:40:33;;;;;;;6.40;3.20;;;18.10;99.90;;;;;;5073667;28;20661;-69
2022/06/11 03:43:00;;;;;;;7.80;3.80;;;18.00;99.90;;;;;;5073444;28;20212;-69
2022/06/11 03:45:26;;;;;;;5.38;3.67;;;18.00;99.90;;;;;;5073688;28;20162;-71
2022/06/11 03:47:52;;;;;;;5.70;3.42;;;17.90;99.90;;;;;;5074243;28;20204;-69
2022/06/11 03:50:25;;;;;;;8.80;3.55;;;18.00;99.90;;;;;;5073496;28;20169;-69
2022/06/11 03:52:51;;;;;;;7.40;3.45;;;18.00;99.90;;;;;;5074039;28;20186;-69
2022/06/11 03:55:18;;;;;;;7.07;3.33;;;17.90;99.90;;;;;;5072243;28;20596;-69
2022/06/11 03:57:44;;;;;;;5.80;3.60;;;17.90;99.90;;;;;;5073712;28;20177;-69
2022/06/11 04:00:15;;;;;;;6.53;3.35;;;18.00;99.90;;;;;;5074842;28;20189;-68
2022/06/11 04:02:41;;;;;;;7.57;3.35;;;18.00;99.90;;;;;;5073303;28;20194;-68
2022/06/11 04:05:07;;;;;;;5.20;3.33;;;18.00;99.90;;;;;;5071910;28;20208;-68
2022/06/11 04:07:36;;;;;;;4.40;3.10;;;18.00;99.90;;;;;;5071974;28;20177;-67
2022/06/11 04:10:03;;;;;;;4.85;2.75;;;18.10;99.90;;;;;;5073343;28;20178;-67
2022/06/11 04:12:29;;;;;;;7.53;3.00;;;18.10;99.90;;;;;;5071957;28;20232;-68
2022/06/11 04:14:55;;;;;;;4.43;2.78;;;18.10;99.90;;;;;;5071627;28;20220;-67
2022/06/11 04:17:27;;;;;;;6.90;3.30;;;18.10;99.90;;;;;;5073251;28;20725;-67
2022/06/11 04:19:54;;;;;;;7.28;3.80;;;18.10;99.90;;;;;;5073474;28;20166;-67
2022/06/11 04:22:21;;;;;;;6.43;3.35;;;18.00;99.90;;;;;;5073083;28;20681;-68
2022/06/11 04:24:48;;;;;;;8.10;3.15;;;18.10;99.90;;;;;;5073411;28;20672;-68
2022/06/11 04:27:16;;;;;;;7.20;3.17;;;18.10;99.90;;;;;;5073240;28;20178;-67
2022/06/11 04:29:47;;;;;;;8.23;3.25;;;18.10;99.90;;;;;;5073094;28;20181;-68
2022/06/11 04:32:17;;;;;;;4.00;2.90;;;18.10;99.90;;;;;;5071792;28;20666;-68
2022/06/11 04:34:45;;;;;;;4.85;3.33;;;18.00;99.90;;;;;;5071773;28;20178;-68
2022/06/11 04:37:13;;;;;;;4.00;2.90;;;18.00;99.90;;;;;;5072924;28;20174;-68
2022/06/11 04:39:41;;;;;;;4.93;2.95;;;18.00;99.90;;;;;;5073283;28;20224;-68
2022/06/11 04:42:09;;;;;;;8.38;3.22;;;17.90;99.90;;;;;;5071662;28;20224;-68
2022/06/11 04:44:36;;;;;;;3.78;3.17;;;17.90;99.90;;;;;;5072731;28;20673;-68
2022/06/11 04:47:02;;;;;;;7.70;3.50;;;17.90;99.90;;;;;;5073518;28;20174;-71
2022/06/11 04:49:28;;;;;;;5.82;3.45;;;17.80;99.90;;;;;;5073054;28;20178;-70
2022/06/11 04:51:54;;;;;;;8.07;3.35;;;17.80;99.90;;;;;;5071583;28;20724;-71
2022/06/11 04:54:20;;;;;;;5.78;3.25;;;17.70;99.90;;;;;;5072996;28;20174;-70
2022/06/11 04:56:45;;;;;;;7.40;3.00;;;17.70;99.90;;;;;;5073025;28;20178;-70
2022/06/11 04:59:11;;;;;;;4.90;3.17;;;17.80;99.90;;;;;;5071419;28;20197;-70
2022/06/11 05:01:39;;;;;;;8.25;3.33;;;17.90;99.90;;;;;;5072683;28;20539;-70
2022/06/11 05:04:05;;;;;;;5.15;3.45;;;18.00;99.90;;;;;;5072754;28;20204;-69
2022/06/11 05:06:35;;;;;;;8.27;3.47;;;18.10;99.90;;;;;;5072972;28;20535;-69
2022/06/11 05:09:01;;;;;;;8.70;3.78;;;18.10;99.90;;;;;;5073325;28;20215;-69
2022/06/11 05:11:27;;;;;;;5.43;3.30;;;18.20;99.90;;;;;;5073225;28;20201;-69
2022/06/11 05:13:53;;;;;;;11.45;3.78;;;18.20;99.90;;;;;;5076016;28;20689;-69
2022/06/11 05:16:21;;;;;;;4.18;2.95;;;18.30;99.90;;;;;;5076226;28;20227;-68
2022/06/11 05:18:48;;;;;;;5.47;3.20;;;18.30;99.90;;;;;;5076461;28;20174;-68
2022/06/11 05:21:14;;;;;;;7.30;3.00;;;18.40;99.90;;;;;;5076252;28;20178;-68
2022/06/11 05:23:40;;;;;;;7.75;2.80;;;18.40;99.90;;;;;;5074723;28;20221;-68
2022/06/11 05:26:08;;;;;;;5.40;3.15;;;18.50;99.90;;;;;;5076578;28;20174;-68
2022/06/11 05:28:35;;;;;;;8.52;3.20;;;18.60;99.90;;;;;;5076154;28;20352;-68
2022/06/11 05:31:00;;;;;;;4.93;2.83;;;18.60;99.90;;;;;;5076639;28;20174;-68
2022/06/11 05:33:27;;;;;;;5.97;3.08;;;18.70;99.90;;;;;;5076568;28;20196;-68
2022/06/11 05:35:53;;;;;;;5.47;3.03;;;18.70;99.90;;;;;;5076079;28;20174;-68
2022/06/11 05:38:26;;;;;;;5.97;3.05;;;18.70;99.90;;;;;;5076286;28;20551;-68
2022/06/11 05:40:53;;;;;;;5.70;2.50;;;18.80;99.90;;;;;;5076214;28;20668;-68
2022/06/11 05:43:20;;;;;;;10.27;3.60;;;18.90;99.90;;;;;;5075697;28;20578;-69
2022/06/11 05:46:09;;;;;;;5.82;3.20;;;19.00;99.90;;;;;;5075794;28;20215;-68
2022/06/11 05:48:45;;;;;;;5.55;2.83;;;19.00;99.90;;;;;;5074502;28;20174;-68
2022/06/11 05:51:19;;;;;;;4.10;2.88;;;19.10;99.90;;;;;;5075885;28;20199;-68
2022/06/11 05:53:46;;;;;;;5.03;2.78;;;19.20;99.90;;;;;;5075542;28;20214;-70
2022/06/11 05:56:15;;;;;;;4.15;2.90;;;19.30;99.90;;;;;;5076523;28;20186;-74
2022/06/11 05:58:44;;;;;;;6.32;2.75;;;19.30;99.90;;;;;;5078981;28;20609;-69
2022/06/11 06:01:14;;;;;;;4.32;2.60;;;19.30;99.90;;;;;;5075368;28;20177;-69
2022/06/11 06:03:39;;;;;;;3.97;2.60;;;19.40;99.90;;;;;;5075162;28;20205;-69
2022/06/11 06:06:06;;;;;;;4.47;2.40;;;19.50;99.90;;;;;;5075343;28;20669;-68
2022/06/11 06:08:31;;;;;;;4.53;2.50;;;19.50;99.90;;;;;;5075343;28;20223;-69
2022/06/11 06:10:57;;;;;;;11.80;2.85;;;19.70;99.90;;;;;;5073989;28;20169;-69
2022/06/11 06:16:07;;;;;;;3.33;2.35;;;19.90;99.90;;;;;;5075429;28;20220;-69
2022/06/11 06:18:33;;;;;;;4.68;2.47;;;20.00;99.90;;;;;;5079192;28;20170;-68
2022/06/11 06:20:59;;;;;;;3.55;2.00;;;20.00;99.90;;;;;;5074931;28;20185;-69
2022/06/11 06:23:25;;;;;;;6.63;2.55;;;20.00;99.90;;;;;;5073975;28;20202;-69
2022/06/11 06:25:50;;;;;;;4.07;2.28;;;20.00;99.90;;;;;;5075442;28;20536;-69
2022/06/11 06:28:16;;;;;;;3.15;2.33;;;20.10;99.90;;;;;;5076275;28;20173;-70
2022/06/11 06:30:42;;;;;;;3.30;2.30;;;20.00;99.90;;;;;;5074831;28;20252;-70
2022/06/11 06:33:08;;;;;;;4.22;2.20;;;20.10;99.90;;;;;;5073975;28;20662;-68
2022/06/11 06:35:34;;;;;;;4.07;2.03;;;20.00;99.90;;;;;;5074708;28;20249;-68
2022/06/11 06:38:02;;;;;;;3.92;2.20;;;20.00;99.90;;;;;;5075188;28;20169;-68
2022/06/11 06:40:28;;;;;;;3.53;2.10;;;20.20;99.90;;;;;;5074519;28;20162;-68
2022/06/11 06:42:53;;;;;;;3.83;1.98;;;20.20;99.90;;;;;;5074355;28;20197;-68
2022/06/11 06:45:20;;;;;;;5.05;2.30;;;20.30;99.90;;;;;;5072922;28;20550;-68
2022/06/11 06:47:46;;;;;;;6.57;2.20;;;20.30;99.90;;;;;;5074324;28;20542;-67
2022/06/11 06:50:12;;;;;;;8.93;3.10;;;20.30;99.90;;;;;;5074610;28;20170;-70
2022/06/11 06:52:38;;;;;;;4.88;2.10;;;20.30;99.90;;;;;;5074432;28;20196;-70
2022/06/11 06:55:04;;;;;;;5.70;2.47;;;20.30;99.90;;;;;;5072995;28;20174;-70
2022/06/11 06:57:30;;;;;;;3.45;2.40;;;20.40;99.90;;;;;;5074345;28;20235;-68
2022/06/11 06:59:56;;;;;;;6.15;2.50;;;20.30;99.90;;;;;;5072655;28;20174;-68
2022/06/11 07:02:22;;;;;;;5.72;2.35;;;20.30;99.90;;;;;;5074064;28;20198;-68
2022/06/11 07:04:47;;;;;;;4.20;2.55;;;20.20;99.90;;;;;;5074321;28;20202;-67
2022/06/11 07:07:15;;;;;;;8.02;2.75;;;20.20;99.90;;;;;;5074068;28;20170;-68
2022/06/11 07:09:41;;;;;;;5.70;2.50;;;20.20;99.90;;;;;;5073994;28;20180;-68
2022/06/11 07:12:07;;;;;;;3.63;2.40;;;20.20;99.90;;;;;;5072640;28;20201;-67
2022/06/11 07:14:33;;;;;;;3.47;2.17;;;20.10;99.90;;;;;;5072481;28;20322;-68
2022/06/11 07:17:02;;;;;;;5.70;2.60;;;20.10;99.90;;;;;;5073892;28;20185;-68
2022/06/11 07:19:36;;;;;;;5.75;2.78;;;20.20;99.90;;;;;;5072826;28;20536;-68
2022/06/11 07:22:11;;;;;;;5.93;2.50;;;20.10;99.90;;;;;;5073733;28;20193;-69
2022/06/11 07:24:40;;;;;;;6.10;2.50;;;20.20;99.90;;;;;;5072494;28;20269;-69
2022/06/11 07:27:12;;;;;;;5.25;2.70;;;20.30;99.90;;;;;;5073874;28;20641;-69
2022/06/11 07:29:43;;;;;;;2.80;2.15;;;20.40;99.90;;;;;;5073600;28;20162;-70
2022/06/11 07:32:14;;;;;;;5.20;2.53;;;20.50;99.90;;;;;;5074134;28;20196;-69
2022/06/11 07:34:43;;;;;;;5.45;2.50;;;20.50;99.90;;;;;;5073391;28;20634;-69
2022/06/11 07:37:13;;;;;;;4.38;2.47;;;20.50;99.90;;;;;;5072284;28;20178;-69
2022/06/11 07:39:39;;;;;;;6.07;3.30;;;20.60;99.90;;;;;;5072367;28;20708;-69
2022/06/11 07:42:05;;;;;;;3.75;2.63;;;20.50;99.90;;;;;;5073553;28;20193;-69
2022/06/11 07:44:31;;;;;;;4.70;2.85;;;20.40;99.90;;;;;;5072048;28;20197;-69
2022/06/11 07:46:57;;;;;;;5.95;2.80;;;20.30;99.90;;;;;;5073535;28;20241;-69
2022/06/11 07:49:23;;;;;;;3.88;2.33;;;20.30;99.90;;;;;;5073620;28;20498;-70
2022/06/11 07:51:48;;;;;;;2.40;2.10;;;20.40;99.90;;;;;;5073516;28;20202;-70
2022/06/11 07:54:14;;;;;;;4.97;2.90;;;20.40;99.90;;;;;;5072230;28;20182;-71
2022/06/11 07:56:40;;;;;;;4.00;2.60;;;20.50;99.90;;;;;;5073488;28;20178;-71
2022/06/11 07:59:07;;;;;;;3.83;2.80;;;20.50;99.90;;;;;;5072006;28;20626;-71
2022/06/11 08:01:32;;;;;;;5.32;2.47;;;20.60;99.90;;;;;;5073669;28;20683;-71
2022/06/11 08:03:58;;;;;;;4.45;2.85;;;20.60;99.90;;;;;;5073473;28;20276;-71
2022/06/11 08:06:25;;;;;;;4.00;2.55;;;20.50;99.90;;;;;;5073505;28;20174;-71
2022/06/11 08:08:51;;;;;;;5.85;2.63;;;20.60;99.90;;;;;;5073734;28;20149;-71
2022/06/11 08:11:17;;;;;;;4.45;2.40;;;20.70;99.90;;;;;;5073398;28;20197;-71
2022/06/11 08:13:43;;;;;;;5.38;3.10;;;20.70;99.90;;;;;;5071745;28;20201;-71
2022/06/11 08:16:10;;;;;;;7.43;3.25;;;20.80;99.90;;;;;;5074076;28;20192;-71
2022/06/11 08:18:37;;;;;;;8.75;5.35;;;20.80;99.90;;;;;;5072245;28;20591;-71
2022/06/11 08:21:04;;;;;;;9.30;6.20;;;20.90;99.90;;;;;;5073966;28;20162;-71
2022/06/11 08:23:29;;;;;;;10.75;6.03;;;21.10;99.90;;;;;;5073267;28;20205;-71
2022/06/11 08:25:56;;;;;;;4.97;3.10;;;21.10;99.90;;;;;;5073361;28;20174;-71
2022/06/11 08:28:22;;;;;;;4.68;3.08;;;21.00;99.90;;;;;;5073927;28;20664;-71
2022/06/11 08:30:49;;;;;;;3.67;2.63;;;21.10;99.90;;;;;;5073145;28;20155;-70
2022/06/11 08:33:16;;;;;;;6.22;2.42;;;21.50;99.90;;;;;;5073391;28;20269;-71
2022/06/11 08:35:42;;;;;;;4.97;2.15;;;21.70;99.90;;;;;;5073910;28;20166;-69
2022/06/11 08:38:09;;;;;;;6.68;2.58;;;21.80;99.90;;;;;;5074076;28;20186;-68
2022/06/11 08:40:41;;;;;;;4.13;2.60;;;21.90;99.90;;;;;;5073738;28;20235;-75
2022/06/11 08:43:17;;;;;;;5.03;2.05;;;21.60;99.90;;;;;;5072117;28;20198;-71
2022/06/11 08:45:45;;;;;;;4.47;2.33;;;21.40;99.90;;;;;;5072359;28;20180;-69
2022/06/11 08:48:28;;;;;;;4.53;3.00;;;21.20;99.90;;;;;;5076381;28;20154;-70
2022/06/11 08:51:17;;;;;;;5.32;2.10;;;21.20;99.90;;;;;;5078306;28;20158;-70
2022/06/11 08:53:43;;;;;;;5.00;2.50;;;21.30;99.90;;;;;;5074311;28;20621;-70
2022/06/11 08:56:36;;;;;;;6.97;3.72;;;21.50;99.90;;;;;;5078390;28;20215;-70
2022/06/11 08:59:18;;;;;;;5.93;3.75;;;21.60;99.90;;;;;;5077970;28;20215;-70
2022/06/11 09:02:05;;;;;;;7.78;4.20;;;21.70;99.90;;;;;;5076055;28;20250;-70
2022/06/11 09:04:43;;;;;;;9.07;3.70;;;21.80;99.90;;;;;;5076191;28;20193;-71
2022/06/11 09:07:30;;;;;;;7.38;4.05;;;21.70;99.90;;;;;;5078276;28;20233;-71
2022/06/11 09:10:27;;;;;;;7.45;3.88;;;21.70;99.90;;;;;;5077232;28;20161;-70
2022/06/11 09:13:18;;;;;;;5.18;3.30;;;21.80;99.90;;;;;;5076569;28;20197;-70
2022/06/11 09:15:53;;;;;;;5.53;3.58;;;21.60;99.90;;;;;;5076242;28;20235;-70
2022/06/11 09:18:36;;;;;;;6.28;2.95;;;21.60;99.90;;;;;;5075114;28;20211;-70
2022/06/11 09:21:23;;;;;;;6.47;3.25;;;21.50;99.90;;;;;;5076496;28;20241;-70
2022/06/11 09:23:52;;;;;;;5.20;3.35;;;21.60;99.90;;;;;;5076269;28;20200;-70
2022/06/11 09:26:45;;;;;;;4.72;3.45;;;21.90;99.90;;;;;;5076286;28;20223;-70
2022/06/11 09:29:11;;;;;;;7.78;4.22;;;22.10;99.90;;;;;;5070444;28;20185;-70
2022/06/11 09:31:52;;;;;;;8.60;4.10;;;22.20;99.90;;;;;;5076178;28;20185;-70
2022/06/11 09:34:58;;;;;;;6.82;4.30;;;22.00;99.90;;;;;;5076342;28;20194;-70
2022/06/11 09:37:40;;;;;;;8.35;5.70;;;21.80;99.90;;;;;;5067360;28;20186;-70
2022/06/11 09:40:42;;;;;;;11.60;5.55;;;21.50;99.90;;;;;;5074712;28;20177;-70
2022/06/11 09:43:35;;;;;;;9.05;6.47;;;21.40;99.90;;;;;;5075677;28;20227;-70
2022/06/11 09:46:19;;;;;;;7.65;5.05;;;21.40;99.90;;;;;;5075546;28;20162;-70
2022/06/11 09:49:00;;;;;;;5.35;4.50;;;21.70;99.90;;;;;;5076065;28;20156;-70
2022/06/11 09:51:34;;;;;;;7.88;4.55;;;22.20;99.90;;;;;;5074399;28;20257;-70
2022/06/11 09:54:19;;;;;;;7.53;4.03;;;22.30;99.90;;;;;;5075653;28;20238;-70
2022/06/11 09:57:09;;;;;;;6.45;3.95;;;22.30;99.90;;;;;;5074476;28;20196;-69
2022/06/11 09:59:38;;;;;;;6.53;3.30;;;22.30;99.90;;;;;;5075579;28;20239;-70
2022/06/11 10:02:07;;;;;;;5.68;3.40;;;22.70;99.90;;;;;;5075391;28;20193;-70
2022/06/11 10:04:40;;;;;;;7.15;3.75;;;22.90;99.90;;;;;;5075380;28;20197;-70
2022/06/11 10:07:12;;;;;;;7.10;3.40;;;23.00;99.90;;;;;;5075438;28;20150;-70
2022/06/11 10:09:47;;;;;;;5.63;3.58;;;23.00;99.90;;;;;;5075639;28;20195;-70
2022/06/11 10:12:19;;;;;;;9.50;3.70;;;22.90;99.90;;;;;;5075406;28;20666;-70
2022/06/11 10:14:59;;;;;;;5.13;3.42;;;22.80;99.90;;;;;;5074759;28;20228;-70
2022/06/11 10:17:30;;;;;;;5.18;3.53;;;22.90;99.90;;;;;;5075573;28;20172;-70
2022/06/11 10:20:17;;;;;;;6.80;3.85;;;23.00;99.90;;;;;;5075164;28;20162;-70
2022/06/11 10:22:55;;;;;;;5.80;3.85;;;23.20;99.90;;;;;;5075104;28;20194;-70
2022/06/11 10:25:43;;;;;;;6.47;3.70;;;23.40;99.90;;;;;;5073768;28;20280;-70
2022/06/11 10:28:33;;;;;;;5.38;3.60;;;23.20;99.90;;;;;;5073753;28;20637;-70
2022/06/11 10:31:20;;;;;;;6.70;4.20;;;23.10;99.90;;;;;;5074686;28;20533;-70
2022/06/11 10:34:03;;;;;;;6.13;3.60;;;22.70;99.90;;;;;;5073627;28;20201;-70
2022/06/11 10:36:37;;;;;;;7.13;4.30;;;22.70;99.90;;;;;;5074878;28;20164;-70
2022/06/11 10:39:12;;;;;;;6.40;3.17;;;22.90;99.90;;;;;;5074787;28;20170;-70
2022/06/11 10:41:44;;;;;;;4.63;2.88;;;23.10;99.90;;;;;;5073604;28;20184;-70
2022/06/11 10:44:31;;;;;;;4.47;3.25;;;22.80;99.90;;;;;;5074727;28;20212;-70
2022/06/11 10:46:57;;;;;;;4.97;2.70;;;22.50;99.90;;;;;;5074591;28;20650;-70
2022/06/11 10:49:24;;;;;;;3.90;2.60;;;22.70;99.90;;;;;;5073468;28;20249;-70
2022/06/11 10:52:23;;;;;;;4.38;2.97;;;22.90;99.90;;;;;;5073209;28;20197;-70
2022/06/11 10:54:49;;;;;;;5.07;3.00;;;23.00;99.90;;;;;;5056587;28;20166;-70
2022/06/11 10:57:26;;;;;;;5.97;3.63;;;23.10;99.90;;;;;;5086302;28;20242;-70
2022/06/11 11:00:24;;;;;;;6.97;4.30;;;23.70;99.90;;;;;;5094441;28;20645;-70
2022/06/11 11:02:57;;;;;;;6.28;3.40;;;23.70;99.90;;;;;;5094150;28;20261;-69
2022/06/11 11:05:23;;;;;;;3.70;2.90;;;23.60;99.90;;;;;;5094385;28;20234;-69
2022/06/11 11:08:01;;;;;;;3.25;2.95;;;23.90;99.90;;;;;;5093318;28;20267;-69
2022/06/11 11:10:36;;;;;;;5.68;3.15;;;23.60;99.90;;;;;;5093989;28;20153;-72
2022/06/11 11:13:14;;;;;;;4.15;3.22;;;23.50;99.90;;;;;;5094421;28;20556;-70
2022/06/11 11:15:44;;;;;;;5.28;2.78;;;23.60;99.90;;;;;;5092729;28;20184;-70
2022/06/11 11:18:23;;;;;;;6.03;3.05;;;23.30;99.90;;;;;;5093389;28;20267;-72
2022/06/11 11:20:53;;;;;;;3.80;3.28;;;23.20;99.90;;;;;;5094701;28;20157;-70
2022/06/11 11:23:23;;;;;;;3.33;3.03;;;23.20;99.90;;;;;;5093686;28;20216;-69
2022/06/11 11:26:00;;;;;;;3.63;3.17;;;23.20;99.90;;;;;;5093029;28;20219;-70
2022/06/11 11:28:35;;;;;;;3.80;3.10;;;23.50;99.90;;;;;;5095038;28;20183;-76
2022/06/11 11:31:08;;;;;;;6.63;3.42;;;23.40;99.90;;;;;;5094763;28;20176;-72
2022/06/11 11:33:42;;;;;;;4.78;3.33;;;23.10;99.90;;;;;;5094524;28;20197;-72
2022/06/11 11:36:21;;;;;;;4.57;3.00;;;22.90;99.90;;;;;;5095502;28;20158;-71
2022/06/11 11:39:17;;;;;;;5.60;3.13;;;22.90;99.90;;;;;;5094867;28;20613;-71
2022/06/11 11:42:02;;;;;;;3.80;3.13;;;23.40;99.90;;;;;;5094354;28;20232;-71
2022/06/11 11:44:33;;;;;;;4.32;2.80;;;23.70;99.90;;;;;;5093923;28;20244;-70
2022/06/11 11:47:06;;;;;;;5.32;3.10;;;24.20;99.90;;;;;;5094572;28;20158;-70
2022/06/11 11:49:33;;;;;;;4.72;3.30;;;24.20;99.90;;;;;;5094166;28;20223;-70
2022/06/11 11:52:26;;;;;;;5.88;3.65;;;24.10;99.90;;;;;;5092741;28;20201;-71
2022/06/11 11:55:21;;;;;;;3.28;2.95;;;23.80;99.90;;;;;;5093295;28;20249;-73
2022/06/11 11:57:54;;;;;;;30.33;20.50;;;23.70;99.90;;;;;;5090373;28;20250;-73
2022/06/11 12:00:39;;;;;;;4.70;3.47;;;24.20;99.90;;;;;;5093761;28;20164;-73
2022/06/11 12:03:26;;;;;;;3.38;2.60;;;24.60;99.90;;;;;;5094285;28;20699;-74
2022/06/11 12:05:55;;;;;;;4.10;2.95;;;24.90;99.90;;;;;;5093602;28;20250;-73
2022/06/11 12:08:36;;;;;;;4.53;3.13;;;24.60;99.90;;;;;;5092754;28;20202;-73
2022/06/11 12:11:07;;;;;;;4.40;3.03;;;24.40;99.90;;;;;;5094571;28;20173;-74
2022/06/11 12:13:47;;;;;;;4.70;2.50;;;24.20;99.90;;;;;;5092810;28;20264;-74
2022/06/11 12:16:25;;;;;;;3.92;2.50;;;24.20;99.90;;;;;;5094175;28;20193;-70
2022/06/11 12:18:56;;;;;;;4.18;2.70;;;24.40;99.90;;;;;;5094135;28;20242;-74
2022/06/11 12:21:26;;;;;;;3.88;2.80;;;24.80;99.90;;;;;;5092859;28;20222;-73
2022/06/11 12:24:09;;;;;;;3.17;2.30;;;24.80;99.90;;;;;;5096445;28;20189;-73
2022/06/11 12:26:42;;;;;;;3.67;2.65;;;25.00;99.90;;;;;;5097708;28;20173;-73
2022/06/11 12:29:37;;;;;;;3.75;3.03;;;25.30;99.90;;;;;;5096479;28;20210;-73
2022/06/11 12:32:30;;;;;;;6.03;2.97;;;25.00;99.90;;;;;;5097620;28;20269;-74
2022/06/11 12:35:00;;;;;;;5.07;2.97;;;25.00;99.90;;;;;;5096394;28;20272;-74
2022/06/11 12:37:50;;;;;;;4.15;2.58;;;25.00;99.90;;;;;;5097915;28;20226;-74
2022/06/11 12:40:37;;;;;;;3.90;2.92;;;25.00;99.90;;;;;;5097836;28;20162;-74
2022/06/11 12:43:08;;;;;;;3.83;2.92;;;24.80;99.90;;;;;;5097519;28;20189;-74
2022/06/11 12:46:14;;;;;;;4.30;2.67;;;24.80;99.90;;;;;;5096298;28;20544;-74
2022/06/11 12:48:49;;;;;;;3.25;2.50;;;25.30;99.90;;;;;;5097590;28;20254;-73
2022/06/11 12:51:35;;;;;;;3.78;2.78;;;26.00;99.90;;;;;;5097670;28;20173;-75
2022/06/11 12:54:23;;;;;;;4.53;2.80;;;26.70;99.90;;;;;;5096037;28;20172;-75
2022/06/11 12:57:07;;;;;;;3.03;2.33;;;26.40;99.90;;;;;;5097329;28;20185;-75
2022/06/11 12:59:44;;;;;;;3.83;2.67;;;25.90;99.90;;;;;;5097598;28;20184;-75
2022/06/11 13:02:31;;;;;;;2.85;2.60;;;25.60;99.90;;;;;;5097343;28;20216;-75
2022/06/11 13:05:19;;;;;;;4.03;2.72;;;25.20;99.90;;;;;;5097238;28;20197;-74
2022/06/11 13:08:04;;;;;;;3.28;2.47;;;25.00;99.90;;;;;;5097053;28;20169;-73
2022/06/11 13:10:37;;;;;;;3.92;2.67;;;24.70;99.90;;;;;;5097108;28;20169;-70
2022/06/11 13:13:15;;;;;;;3.85;2.90;;;25.10;99.90;;;;;;5096728;28;20220;-70
2022/06/11 13:16:15;;;;;;;4.82;2.70;;;25.60;99.90;;;;;;5095322;28;20195;-70
2022/06/11 13:18:41;;;;;;;2.60;2.40;;;26.20;99.90;;;;;;5095417;28;20249;-70
2022/06/11 13:21:40;;;;;;;5.28;2.97;;;26.30;99.90;;;;;;5095426;28;20205;-70